Time;durP1;ratioP1;P1;durP2;ratioP2;P2;SDS_P1;SDS_P2;PMS_P1;PMS_P2;Temp;Humidity;BMP_temperature;BMP_pressure;BME280_temperature;BME280_humidity;BME280_pressure;Samples;Min_cycle;Max_cycle;Signal;HPM_P1;HPM_P2
2022/03/07 00:00:40;;;;;;;;;21.00;19.50;;;;;20.58;34.45;101925.00;5063995;27;51108;-51
2022/03/07 00:03:05;;;;;;;;;24.25;20.50;;;;;20.56;34.35;101919.69;5068397;28;51228;-50
2022/03/07 00:05:30;;;;;;;;;21.25;17.75;;;;;20.55;34.17;101922.63;5072917;28;51285;-45
2022/03/07 00:07:56;;;;;;;;;21.25;20.25;;;;;20.54;34.11;101920.94;5067187;27;51799;-49
2022/03/07 00:10:21;;;;;;;;;23.25;21.25;;;;;20.53;34.24;101911.81;5069456;28;51105;-49
2022/03/07 00:12:46;;;;;;;;;17.75;16.50;;;;;20.51;34.19;101919.41;5066663;27;51156;-51
2022/03/07 00:15:12;;;;;;;;;20.00;19.00;;;;;20.49;34.14;101910.50;5056607;27;50954;-47
2022/03/07 00:17:37;;;;;;;;;21.25;20.25;;;;;20.48;34.11;101908.78;5063829;28;51759;-51
2022/03/07 00:20:04;;;;;;;;;21.50;21.50;;;;;20.46;33.88;101906.25;5070862;28;51150;-50
2022/03/07 00:22:30;;;;;;;;;18.25;18.00;;;;;20.45;33.76;101906.44;5058534;28;50990;-48
2022/03/07 00:24:55;;;;;;;;;22.00;19.50;;;;;20.44;34.31;101913.84;5062566;27;51025;-46
2022/03/07 00:27:21;;;;;;;;;17.50;15.75;;;;;20.43;33.92;101922.31;5061318;28;51080;-48
2022/03/07 00:29:46;;;;;;;;;20.00;18.25;;;;;20.42;34.32;101929.69;5072839;27;51138;-47
2022/03/07 00:32:12;;;;;;;;;25.00;23.25;;;;;20.42;34.08;101917.78;5067502;27;50975;-45
2022/03/07 00:34:37;;;;;;;;;21.50;19.75;;;;;20.40;34.06;101917.16;5061693;28;51182;-47
2022/03/07 00:37:03;;;;;;;;;17.25;17.00;;;;;20.39;33.77;101920.94;5063754;27;51960;-49
2022/03/07 00:39:28;;;;;;;;;18.25;18.25;;;;;20.37;34.16;101921.16;5071550;28;51104;-48
2022/03/07 00:41:53;;;;;;;;;19.75;19.00;;;;;20.36;34.12;101916.69;5062524;28;51350;-51
2022/03/07 00:44:18;;;;;;;;;20.25;18.50;;;;;20.36;34.11;101919.44;5069238;28;51571;-49
2022/03/07 00:46:44;;;;;;;;;21.00;18.50;;;;;20.35;33.81;101922.41;5056133;28;51146;-49
2022/03/07 00:49:09;;;;;;;;;19.00;17.75;;;;;20.33;33.99;101919.00;5069655;28;51081;-48
2022/03/07 00:51:35;;;;;;;;;21.75;19.00;;;;;20.32;33.88;101920.91;5061877;27;51001;-51
2022/03/07 00:54:00;;;;;;;;;23.00;18.50;;;;;20.31;33.91;101921.06;5071278;28;51363;-47
2022/03/07 00:56:26;;;;;;;;;16.00;14.75;;;;;20.29;33.73;101917.66;5062935;27;51723;-46
2022/03/07 00:58:51;;;;;;;;;20.25;18.50;;;;;20.28;33.87;101916.81;5063293;28;51145;-46
2022/03/07 01:01:16;;;;;;;;;20.25;17.00;;;;;20.27;33.69;101909.59;5070114;28;52449;-48
2022/03/07 01:03:42;;;;;;;;;19.50;17.00;;;;;20.26;34.22;101916.16;5062175;28;51041;-49
2022/03/07 01:06:07;;;;;;;;;17.75;17.75;;;;;20.25;34.22;101910.84;5070148;27;51682;-45
2022/03/07 01:08:32;;;;;;;;;20.50;18.00;;;;;20.23;34.08;101911.06;5065870;27;51117;-49
2022/03/07 01:10:58;;;;;;;;;16.25;15.00;;;;;20.24;34.21;101917.41;5072071;28;50973;-51
2022/03/07 01:13:25;;;;;;;;;25.25;21.00;;;;;20.22;34.08;101916.72;5066988;27;51363;-47
2022/03/07 01:15:50;;;;;;;;;19.75;19.75;;;;;20.23;33.69;101910.22;5071946;27;51172;-50
2022/03/07 01:18:15;;;;;;;;;19.00;16.25;;;;;20.21;34.18;101917.78;5066530;27;51211;-48
2022/03/07 01:20:41;;;;;;;;;22.00;18.25;;;;;20.19;34.26;101916.06;5074400;28;51182;-45
2022/03/07 01:23:07;;;;;;;;;19.25;18.75;;;;;20.18;33.58;101914.38;5070853;27;51364;-50
2022/03/07 01:25:33;;;;;;;;;17.50;15.25;;;;;20.17;33.90;101907.16;5065290;27;51106;-50
2022/03/07 01:27:58;;;;;;;;;16.50;15.50;;;;;20.15;33.81;101908.41;5066476;27;51014;-49
2022/03/07 01:30:23;;;;;;;;;18.75;17.00;;;;;20.14;33.90;101907.56;5066510;27;51047;-48
2022/03/07 01:32:52;;;;;;;;;16.25;16.25;;;;;20.13;34.01;101908.63;5070451;28;51234;-48
2022/03/07 01:35:18;;;;;;;;;17.25;16.50;;;;;20.13;34.21;101905.03;5057892;27;51091;-49
2022/03/07 01:37:44;;;;;;;;;18.50;16.25;;;;;20.13;33.76;101911.38;5057383;28;51624;-48
2022/03/07 01:40:10;;;;;;;;;19.25;19.00;;;;;20.11;34.08;101902.47;5066859;28;51079;-45
2022/03/07 01:42:35;;;;;;;;;18.00;16.00;;;;;20.10;33.99;101900.72;5063605;27;51130;-47
2022/03/07 01:45:15;;;;;;;;;15.50;15.50;;;;;20.11;33.94;101901.59;5066130;28;51034;-51
2022/03/07 01:47:40;;;;;;;;;17.75;17.25;;;;;20.10;33.84;101905.38;5081825;27;52436;-50
2022/03/07 01:50:08;;;;;;;;;18.75;18.50;;;;;20.09;33.83;101892.69;5065427;27;51129;-50
2022/03/07 01:52:37;;;;;;;;;17.75;16.25;;;;;20.07;33.74;101894.78;5068116;28;51238;-51
2022/03/07 01:55:03;;;;;;;;;19.25;15.75;;;;;20.06;33.92;101899.44;5070472;27;51814;-48
2022/03/07 01:57:30;;;;;;;;;17.00;17.00;;;;;20.05;33.95;101900.47;5058089;28;51280;-47
2022/03/07 01:59:56;;;;;;;;;18.50;18.50;;;;;20.05;33.58;101903.22;5067081;28;51073;-48
2022/03/07 02:02:21;;;;;;;;;15.50;13.00;;;;;20.04;33.62;101890.53;5073068;28;51491;-45
2022/03/07 02:04:47;;;;;;;;;17.75;15.50;;;;;20.03;33.98;101887.97;5061022;28;51803;-49
2022/03/07 02:07:12;;;;;;;;;14.00;13.50;;;;;20.04;33.95;101886.94;5068052;28;50977;-49
2022/03/07 02:09:37;;;;;;;;;19.75;15.75;;;;;20.01;33.76;101881.78;5067243;27;51197;-51
2022/03/07 02:12:03;;;;;;;;;16.50;15.75;;;;;20.01;33.79;101890.94;5065818;28;51170;-48
2022/03/07 02:14:28;;;;;;;;;12.75;12.00;;;;;19.99;33.89;101876.50;5071572;28;51155;-50
2022/03/07 02:16:54;;;;;;;;;16.00;14.75;;;;;20.00;33.91;101874.59;5076234;27;51057;-49
2022/03/07 02:19:19;;;;;;;;;15.25;13.25;;;;;19.98;33.84;101877.53;5071386;28;51310;-49
2022/03/07 02:21:48;;;;;;;;;16.75;15.75;;;;;19.97;33.62;101870.34;5077412;27;51076;-48
2022/03/07 02:24:15;;;;;;;;;15.00;14.75;;;;;19.96;33.84;101871.38;5059232;28;51854;-48
2022/03/07 02:26:41;;;;;;;;;19.50;16.00;;;;;19.95;33.88;101863.34;5059728;28;51409;-50
2022/03/07 02:29:08;;;;;;;;;15.25;15.00;;;;;19.94;33.83;101862.50;5071186;27;52653;-49
2022/03/07 02:31:34;;;;;;;;;18.25;13.75;;;;;19.94;33.68;101867.13;5057621;28;51121;-49
2022/03/07 02:34:01;;;;;;;;;15.25;13.25;;;;;19.93;34.00;101860.78;5069319;28;51155;-47
2022/03/07 02:36:27;;;;;;;;;14.75;14.75;;;;;19.92;33.72;101864.59;5067642;28;50892;-50
2022/03/07 02:38:53;;;;;;;;;15.50;15.50;;;;;19.91;33.62;101860.13;5071931;27;51127;-48
2022/03/07 02:41:19;;;;;;;;;16.75;16.50;;;;;19.89;33.67;101854.81;5071036;28;51789;-49
2022/03/07 02:43:44;;;;;;;;;13.25;11.25;;;;;19.89;33.60;101854.81;5063179;28;51031;-47
2022/03/07 02:46:09;;;;;;;;;10.50;10.50;;;;;19.89;33.56;101846.56;5068782;28;51062;-52
2022/03/07 02:48:35;;;;;;;;;15.25;13.75;;;;;19.88;33.37;101841.25;5062801;28;51244;-51
2022/03/07 02:51:00;;;;;;;;;16.25;15.25;;;;;19.87;33.45;101845.91;5064879;27;51504;-51
2022/03/07 02:53:26;;;;;;;;;18.25;14.75;;;;;19.87;33.75;101847.81;5057618;28;51840;-52
2022/03/07 02:55:53;;;;;;;;;21.25;17.25;;;;;19.86;33.64;101841.44;5065868;27;51322;-51
2022/03/07 02:58:18;;;;;;;;;15.00;15.00;;;;;19.85;33.75;101841.66;5061349;28;51118;-49
2022/03/07 03:00:43;;;;;;;;;14.75;13.00;;;;;19.84;33.67;101837.19;5073357;28;51222;-48
2022/03/07 03:03:09;;;;;;;;;14.25;14.25;;;;;19.85;33.90;101836.16;5058011;28;51888;-47
2022/03/07 03:05:34;;;;;;;;;16.00;14.00;;;;;19.84;33.59;101845.44;5058922;28;51101;-47
2022/03/07 03:07:59;;;;;;;;;15.00;12.50;;;;;19.83;33.70;101833.59;5064103;28;51136;-49
2022/03/07 03:10:25;;;;;;;;;10.50;9.75;;;;;19.83;33.90;101843.75;5064073;28;51423;-51
2022/03/07 03:12:51;;;;;;;;;15.25;15.25;;;;;19.84;33.67;101837.19;5061367;28;52412;-50
2022/03/07 03:15:17;;;;;;;;;15.00;14.75;;;;;19.82;33.99;101833.78;5071810;28;51217;-46
2022/03/07 03:17:44;;;;;;;;;15.00;14.25;;;;;19.81;33.98;101830.19;5074512;27;51087;-50
2022/03/07 03:20:11;;;;;;;;;11.50;9.75;;;;;19.80;33.61;101835.88;5067156;28;51041;-50
2022/03/07 03:22:41;;;;;;;;;14.00;13.50;;;;;19.79;33.88;101826.75;5075964;27;51895;-48
2022/03/07 03:25:09;;;;;;;;;17.50;15.00;;;;;19.77;33.95;101828.88;5067450;27;51458;-48
2022/03/07 03:27:35;;;;;;;;;7.75;7.25;;;;;19.77;33.90;101817.88;5074912;27;50911;-49
2022/03/07 03:30:00;;;;;;;;;18.75;14.50;;;;;19.76;33.71;101823.56;5077010;27;50918;-48
2022/03/07 03:32:27;;;;;;;;;15.25;13.50;;;;;19.75;33.57;101822.72;5059119;28;51072;-50
2022/03/07 03:34:53;;;;;;;;;15.75;15.75;;;;;19.74;33.58;101834.75;5067586;28;51492;-51
2022/03/07 03:37:18;;;;;;;;;14.50;11.00;;;;;19.73;33.63;101833.06;5065407;28;51317;-45
2022/03/07 03:39:43;;;;;;;;;15.00;14.00;;;;;19.72;33.66;101833.25;5070851;28;51178;-48
2022/03/07 03:42:09;;;;;;;;;19.25;17.75;;;;;19.72;33.80;101833.25;5072396;27;51795;-48
2022/03/07 03:44:34;;;;;;;;;9.00;9.00;;;;;19.70;33.41;101833.47;5062025;28;51091;-45
2022/03/07 03:46:59;;;;;;;;;15.00;12.75;;;;;19.70;33.82;101827.09;5074273;27;51202;-48
2022/03/07 03:49:25;;;;;;;;;16.00;16.00;;;;;19.69;33.40;101833.63;5067185;28;51161;-50
2022/03/07 03:51:50;;;;;;;;;15.75;14.50;;;;;19.67;33.43;101831.06;5070201;28;51990;-48
2022/03/07 03:54:16;;;;;;;;;11.75;11.00;;;;;19.67;33.76;101827.47;5074314;27;51265;-46
2022/03/07 03:56:41;;;;;;;;;12.25;10.25;;;;;19.66;33.68;101828.50;5071599;27;51204;-49
2022/03/07 03:59:06;;;;;;;;;16.50;14.75;;;;;19.65;33.64;101841.41;5067234;28;51035;-49
2022/03/07 04:01:32;;;;;;;;;15.25;12.25;;;;;19.63;33.40;101832.50;5060208;28;51437;-50
2022/03/07 04:03:57;;;;;;;;;11.50;11.50;;;;;19.63;33.40;101849.00;5067461;27;51135;-51
2022/03/07 04:06:23;;;;;;;;;13.50;13.50;;;;;19.61;33.67;101842.84;5064915;27;51337;-50
2022/03/07 04:09:07;;;;;;;;;13.75;12.75;;;;;19.60;33.79;101843.91;5058214;28;50999;-46
2022/03/07 04:11:32;;;;;;;;;15.00;12.00;;;;;19.60;33.87;101847.50;5064827;28;50972;-51
2022/03/07 04:13:58;;;;;;;;;12.25;11.25;;;;;19.59;33.24;101844.91;5064684;27;51129;-45
2022/03/07 04:16:23;;;;;;;;;12.50;12.00;;;;;19.58;33.62;101844.06;5065691;28;51151;-47
2022/03/07 04:18:48;;;;;;;;;10.00;10.00;;;;;19.57;33.38;101847.88;5063044;28;50910;-50
2022/03/07 04:21:14;;;;;;;;;11.25;11.00;;;;;19.56;33.66;101846.16;5061386;27;51051;-48
2022/03/07 04:23:39;;;;;;;;;14.00;13.25;;;;;19.56;33.86;101848.06;5064393;28;51230;-50
2022/03/07 04:26:05;;;;;;;;;13.00;12.00;;;;;19.54;33.59;101848.22;5056114;28;51286;-52
2022/03/07 04:28:30;;;;;;;;;15.25;14.75;;;;;19.53;33.24;101842.91;5067790;27;51301;-50
2022/03/07 04:30:56;;;;;;;;;13.75;13.00;;;;;19.54;33.31;101848.22;5069183;27;51019;-50
2022/03/07 04:33:21;;;;;;;;;12.75;12.75;;;;;19.53;33.44;101845.66;5065130;28;51162;-51
2022/03/07 04:35:46;;;;;;;;;12.75;12.75;;;;;19.52;33.54;101844.81;5057205;28;50990;-50
2022/03/07 04:38:12;;;;;;;;;17.25;15.75;;;;;19.52;33.43;101843.97;5057641;28;51491;-48
2022/03/07 04:40:37;;;;;;;;;15.50;14.25;;;;;19.50;33.43;101851.56;5073150;27;51800;-51
2022/03/07 04:43:02;;;;;;;;;12.50;11.00;;;;;19.49;33.15;101841.63;5062464;28;51115;-50
2022/03/07 04:45:28;;;;;;;;;17.50;12.50;;;;;19.47;33.41;101840.94;5063784;28;51116;-51
2022/03/07 04:47:53;;;;;;;;;11.00;10.50;;;;;19.48;33.31;101851.72;5062880;28;51591;-51
2022/03/07 04:50:19;;;;;;;;;13.25;13.25;;;;;19.47;33.45;101850.03;5065474;27;51141;-48
2022/03/07 04:52:44;;;;;;;;;13.50;13.50;;;;;19.45;33.61;101846.63;5062154;28;51159;-46
2022/03/07 04:55:11;;;;;;;;;13.00;13.00;;;;;19.46;33.24;101852.97;5063287;28;51415;-49
2022/03/07 04:57:37;;;;;;;;;12.25;10.75;;;;;19.44;33.56;101844.91;5060967;28;51232;-47
2022/03/07 05:00:09;;;;;;;;;15.25;13.25;;;;;19.43;33.41;101851.47;5072805;27;52688;-51
2022/03/07 05:02:34;;;;;;;;;10.50;9.50;;;;;19.44;33.50;101855.91;5065416;28;51457;-44
2022/03/07 05:04:59;;;;;;;;;14.50;14.50;;;;;19.42;33.38;101857.16;5057671;28;50974;-47
2022/03/07 05:07:25;;;;;;;;;11.25;11.25;;;;;19.41;33.27;101850.81;5065227;28;50957;-50
2022/03/07 05:09:50;;;;;;;;;12.75;10.50;;;;;19.40;33.20;101851.84;5055175;28;51082;-48
2022/03/07 05:12:16;;;;;;;;;11.75;10.25;;;;;19.40;33.35;101851.84;5061837;28;51163;-50
2022/03/07 05:14:41;;;;;;;;;10.25;10.25;;;;;19.39;33.15;101863.03;5073875;28;51105;-50
2022/03/07 05:17:07;;;;;;;;;13.00;13.00;;;;;19.37;33.04;101849.47;5074050;27;51314;-51
2022/03/07 05:19:32;;;;;;;;;15.25;13.50;;;;;19.37;33.24;101849.47;5074788;28;51318;-51
2022/03/07 05:21:57;;;;;;;;;14.50;12.75;;;;;19.37;33.39;101849.47;5063429;28;51134;-51
2022/03/07 05:24:23;;;;;;;;;13.50;13.50;;;;;19.37;33.42;101848.63;5058729;28;51099;-47
2022/03/07 05:26:48;;;;;;;;;11.25;10.50;;;;;19.35;33.35;101848.81;5058933;28;51123;-52
2022/03/07 05:29:14;;;;;;;;;13.25;13.00;;;;;19.35;33.24;101856.19;5072527;27;51984;-50
2022/03/07 05:31:39;;;;;;;;;12.50;11.50;;;;;19.34;33.15;101849.84;5059700;27;51525;-47
2022/03/07 05:34:04;;;;;;;;;13.00;12.25;;;;;19.33;33.21;101853.66;5062863;28;51205;-51
2022/03/07 05:36:30;;;;;;;;;14.50;13.75;;;;;19.33;33.00;101856.41;5069137;28;50945;-51
2022/03/07 05:38:55;;;;;;;;;14.25;13.00;;;;;19.32;33.13;101857.44;5067544;27;52525;-46
2022/03/07 05:41:21;;;;;;;;;10.50;10.50;;;;;19.31;33.33;101845.59;5072107;27;51170;-48
2022/03/07 05:43:46;;;;;;;;;15.50;13.75;;;;;19.31;33.27;101855.75;5071383;28;51140;-47
2022/03/07 05:46:11;;;;;;;;;11.75;10.25;;;;;19.31;33.08;101858.50;5072925;27;51121;-48
2022/03/07 05:48:37;;;;;;;;;13.75;12.25;;;;;19.30;33.48;101862.28;5061741;28;52479;-51
2022/03/07 05:51:02;;;;;;;;;21.75;18.25;;;;;19.29;32.61;101860.56;5061970;27;51179;-46
2022/03/07 05:53:28;;;;;;;;;29.75;27.00;;;;;19.27;31.66;101862.63;5065719;28;51175;-47
2022/03/07 05:55:53;;;;;;;;;29.25;25.25;;;;;19.25;31.09;101870.22;5069197;28;51334;-51
2022/03/07 05:58:18;;;;;;;;;32.00;27.50;;;;;19.20;30.52;101869.94;5074250;27;51622;-52
2022/03/07 06:00:44;;;;;;;;;29.75;27.75;;;;;19.14;29.86;101868.81;5071496;27;51124;-48
2022/03/07 06:03:11;;;;;;;;;33.75;31.25;;;;;19.10;29.93;101863.88;5067393;28;51332;-48
2022/03/07 06:05:37;;;;;;;;;34.50;30.75;;;;;19.04;29.51;101871.81;5070977;27;51263;-49
2022/03/07 06:08:03;;;;;;;;;35.75;31.75;;;;;18.98;29.16;101872.59;5082955;27;52899;-50
2022/03/07 06:10:28;;;;;;;;;35.00;32.00;;;;;18.94;29.16;101873.13;5056392;28;51620;-49
2022/03/07 06:12:53;;;;;;;;;36.25;32.00;;;;;18.88;28.81;101871.16;5058713;28;51123;-49
2022/03/07 06:15:19;;;;;;;;;32.00;29.50;;;;;18.81;28.58;101876.53;5057915;28;50938;-49
2022/03/07 06:17:53;;;;;;;;;35.00;31.50;;;;;18.75;28.44;101874.50;5070423;28;52011;-49
2022/03/07 06:20:20;;;;;;;;;34.25;31.00;;;;;18.69;28.46;101881.63;5057507;28;51416;-51
2022/03/07 06:22:45;;;;;;;;;32.00;30.25;;;;;18.63;28.40;101882.31;5057245;28;51215;-46
2022/03/07 06:25:10;;;;;;;;;36.25;31.25;;;;;18.57;28.29;101885.81;5068616;28;50985;-49
2022/03/07 06:27:37;;;;;;;;;35.00;32.25;;;;;18.53;28.12;101883.59;5072728;27;52712;-50
2022/03/07 06:30:03;;;;;;;;;37.75;34.00;;;;;18.46;28.08;101883.50;5068978;27;51400;-52
2022/03/07 06:32:28;;;;;;;;;43.50;35.50;;;;;18.41;27.96;101888.69;5065019;28;51229;-49
2022/03/07 06:34:54;;;;;;;;;38.75;34.75;;;;;18.34;27.74;101887.69;5063052;27;51073;-49
2022/03/07 06:37:19;;;;;;;;;28.75;27.25;;;;;18.28;28.05;101881.06;5068525;28;51729;-48
2022/03/07 06:39:44;;;;;;;;;35.25;32.00;;;;;18.20;28.62;101874.78;5068271;27;51024;-50
2022/03/07 06:42:10;;;;;;;;;34.25;31.25;;;;;18.15;28.27;101881.69;5071604;27;51082;-45
2022/03/07 06:44:39;;;;;;;;;33.00;31.00;;;;;18.16;29.09;101885.28;5066664;27;52442;-48
2022/03/07 06:47:06;;;;;;;;;21.50;15.75;;;;;18.19;29.48;101887.63;5062137;28;51797;-46
2022/03/07 06:49:31;;;;;;;;;19.75;19.75;;;;;18.25;29.48;101895.16;5073604;27;51478;-48
2022/03/07 06:51:57;;;;;;;;;24.00;21.50;;;;;18.35;29.75;101894.91;5079666;27;51161;-45
2022/03/07 06:54:22;;;;;;;;;26.75;21.25;;;;;18.42;30.06;101885.75;5069660;27;51014;-52
2022/03/07 06:56:47;;;;;;;;;24.75;20.50;;;;;18.53;30.23;101892.69;5058914;28;51975;-49
2022/03/07 06:59:12;;;;;;;;;17.50;17.50;;;;;18.62;30.18;101885.25;5064839;28;51199;-48
2022/03/07 07:01:38;;;;;;;;;18.25;16.25;;;;;18.72;30.79;101883.97;5061097;27;52102;-49
2022/03/07 07:04:03;;;;;;;;;16.50;15.50;;;;;18.81;31.03;101884.75;5064229;27;51129;-47
2022/03/07 07:06:29;;;;;;;;;19.25;18.50;;;;;18.91;30.97;101890.84;5059174;27;51725;-48
2022/03/07 07:08:54;;;;;;;;;17.25;15.25;;;;;18.99;31.38;101884.44;5066627;27;51242;-47
2022/03/07 07:11:19;;;;;;;;;15.00;14.00;;;;;19.08;31.61;101885.19;5067267;28;51163;-46
2022/03/07 07:13:45;;;;;;;;;14.00;13.50;;;;;19.17;31.76;101886.78;5057290;28;51060;-49
2022/03/07 07:16:10;;;;;;;;;14.25;12.00;;;;;19.27;31.81;101881.88;5063290;28;51243;-51
2022/03/07 07:18:35;;;;;;;;;14.25;12.50;;;;;19.35;32.42;101886.41;5068439;28;51081;-45
2022/03/07 07:21:01;;;;;;;;;15.25;13.25;;;;;19.41;32.12;101874.69;5066232;28;51323;-48
2022/03/07 07:23:27;;;;;;;;;11.50;10.50;;;;;19.49;32.00;101880.94;5063803;28;51290;-48
2022/03/07 07:25:54;;;;;;;;;15.25;14.50;;;;;19.55;32.49;101880.19;5072489;28;51853;-46
2022/03/07 07:28:19;;;;;;;;;12.75;12.75;;;;;19.60;32.63;101883.22;5069753;27;51500;-47
2022/03/07 07:30:46;;;;;;;;;12.25;11.25;;;;;19.68;33.31;101878.66;5058157;27;51132;-48
2022/03/07 07:33:11;;;;;;;;;14.00;13.50;;;;;19.75;33.16;101887.84;5068973;27;51572;-47
2022/03/07 07:35:37;;;;;;;;;14.75;11.00;;;;;19.80;33.34;101893.59;5065288;27;51099;-47
2022/03/07 07:38:03;;;;;;;;;14.50;11.25;;;;;19.85;33.42;101888.41;5073164;28;51100;-46
2022/03/07 07:40:29;;;;;;;;;12.75;11.50;;;;;19.91;33.16;101895.88;5061345;27;51886;-43
2022/03/07 07:42:55;;;;;;;;;13.00;12.50;;;;;19.97;33.07;101897.00;5062026;27;51247;-49
2022/03/07 07:45:20;;;;;;;;;15.75;13.25;;;;;20.02;33.57;101898.13;5056526;27;51051;-45
2022/03/07 07:47:45;;;;;;;;;14.00;13.00;;;;;20.07;33.47;101892.88;5057042;28;51081;-44
2022/03/07 07:50:11;;;;;;;;;16.50;14.25;;;;;20.13;33.40;101896.75;5061092;28;52048;-48
2022/03/07 07:52:36;;;;;;;;;15.50;13.50;;;;;20.18;33.40;101884.13;5059005;28;51023;-45
2022/03/07 07:55:05;;;;;;;;;13.50;13.50;;;;;20.24;33.23;101892.66;5062707;27;52714;-49
2022/03/07 07:57:31;;;;;;;;;14.50;12.50;;;;;20.29;33.08;101884.66;5055651;28;51029;-46
2022/03/07 07:59:56;;;;;;;;;16.25;13.75;;;;;20.35;33.52;101894.88;5057281;28;51386;-47
2022/03/07 08:02:22;;;;;;;;;16.50;14.00;;;;;20.39;33.38;101882.41;5064761;28;51047;-47
2022/03/07 08:04:47;;;;;;;;;13.25;11.50;;;;;20.40;33.37;101882.22;5060640;27;51888;-46
2022/03/07 08:07:12;;;;;;;;;18.25;13.75;;;;;20.38;33.62;101881.56;5069856;28;51212;-46
2022/03/07 08:09:38;;;;;;;;;10.75;10.75;;;;;20.35;33.56;101883.88;5070284;28;51216;-46
2022/03/07 08:12:04;;;;;;;;;12.00;11.25;;;;;20.32;33.90;101887.00;5064824;28;51152;-49
2022/03/07 08:14:29;;;;;;;;;18.25;15.50;;;;;20.26;33.38;101874.03;5061072;28;51136;-44
2022/03/07 08:16:55;;;;;;;;;18.50;16.25;;;;;20.22;33.62;101880.97;5075005;27;50980;-46
2022/03/07 08:19:20;;;;;;;;;17.25;16.25;;;;;20.13;34.12;101883.88;5073996;27;51247;-48
2022/03/07 08:21:45;;;;;;;;;20.00;16.75;;;;;20.08;34.01;101874.47;5075703;28;51120;-44
2022/03/07 08:24:11;;;;;;;;;19.25;16.25;;;;;20.03;34.00;101883.31;5075396;28;51732;-47
2022/03/07 08:26:38;;;;;;;;;16.50;16.00;;;;;19.99;34.06;101878.38;5076009;28;51000;-49
2022/03/07 08:29:04;;;;;;;;;14.75;14.00;;;;;19.94;34.14;101887.22;5080841;27;51082;-48
2022/03/07 08:31:29;;;;;;;;;16.00;15.00;;;;;19.88;34.50;101877.84;5068578;27;51310;-47
2022/03/07 08:33:55;;;;;;;;;14.50;14.50;;;;;19.83;34.65;101890.50;5063858;28;51049;-50
2022/03/07 08:36:20;;;;;;;;;18.00;16.25;;;;;19.79;34.91;101876.25;5055196;28;51101;-48
2022/03/07 08:38:45;;;;;;;;;15.00;13.25;;;;;19.74;35.01;101876.00;5055565;28;50980;-50
2022/03/07 08:41:11;;;;;;;;;16.00;14.75;;;;;19.72;34.84;101869.00;5061259;28;51025;-47
2022/03/07 08:43:36;;;;;;;;;16.00;15.25;;;;;19.68;34.95;101860.25;5055423;28;51074;-51
2022/03/07 08:46:02;;;;;;;;;14.75;14.50;;;;;19.64;35.12;101869.94;5070886;28;51025;-48
2022/03/07 08:48:28;;;;;;;;;13.50;13.50;;;;;19.60;34.76;101857.66;5055205;28;51516;-48
2022/03/07 08:50:54;;;;;;;;;18.25;16.00;;;;;19.58;35.22;101863.31;5056311;28;51167;-47
2022/03/07 08:53:20;;;;;;;;;13.25;13.00;;;;;19.55;34.99;101863.69;5058158;28;51147;-47
2022/03/07 08:55:45;;;;;;;;;18.00;14.50;;;;;19.53;34.85;101865.75;5072171;28;51023;-48
2022/03/07 08:58:11;;;;;;;;;13.00;13.00;;;;;19.52;34.94;101865.97;5078609;28;51040;-47
2022/03/07 09:00:36;;;;;;;;;18.25;13.75;;;;;19.51;34.82;101862.34;5078994;28;51203;-43
2022/03/07 09:03:04;;;;;;;;;16.00;15.00;;;;;19.51;34.86;101867.84;5072353;28;51498;-49
2022/03/07 09:05:29;;;;;;;;;18.50;15.75;;;;;19.52;34.76;101858.56;5078963;28;50984;-47
2022/03/07 09:07:55;;;;;;;;;14.25;13.75;;;;;19.53;34.72;101859.41;5078964;28;51182;-45
2022/03/07 09:10:20;;;;;;;;;17.00;14.50;;;;;19.53;34.90;101851.16;5092581;27;51190;-47
2022/03/07 09:12:46;;;;;;;;;15.00;15.00;;;;;19.53;34.78;101862.16;5078901;28;51976;-50
2022/03/07 09:15:11;;;;;;;;;12.25;12.00;;;;;19.54;34.87;101867.47;5078911;28;50998;-44
2022/03/07 09:17:37;;;;;;;;;13.75;12.75;;;;;19.54;35.02;101848.22;5078988;28;51008;-46
2022/03/07 09:20:03;;;;;;;;;14.50;14.25;;;;;19.54;34.80;101858.38;5079166;28;51183;-47
2022/03/07 09:22:28;;;;;;;;;18.00;13.75;;;;;19.53;35.37;101857.50;5074870;28;51331;-50
2022/03/07 09:24:54;;;;;;;;;12.50;11.50;;;;;19.54;35.20;101858.38;5059543;28;51069;-48
2022/03/07 09:27:20;;;;;;;;;14.75;12.50;;;;;19.55;34.75;101852.72;5058616;28;51025;-47
2022/03/07 09:29:46;;;;;;;;;16.25;12.75;;;;;19.56;34.74;101859.91;5079081;27;51251;-46
2022/03/07 09:32:11;;;;;;;;;15.50;12.00;;;;;19.56;34.71;101854.41;5098708;27;52856;-47
2022/03/07 09:34:37;;;;;;;;;13.25;12.25;;;;;19.58;34.91;101863.31;5081260;27;51465;-50
2022/03/07 09:37:07;;;;;;;;;14.25;12.75;;;;;19.59;34.85;101856.78;5078440;28;51224;-50
2022/03/07 09:39:34;;;;;;;;;14.50;14.00;;;;;19.62;34.57;101865.69;5079140;28;51150;-51
2022/03/07 09:42:00;;;;;;;;;12.75;12.75;;;;;19.62;34.77;101858.28;5076268;28;51272;-48
2022/03/07 09:44:27;;;;;;;;;15.75;15.75;;;;;19.64;34.12;101855.34;5078728;28;51225;-49
2022/03/07 09:46:55;;;;;;;;;14.00;14.00;;;;;19.65;34.63;101854.31;5078223;28;51117;-50
2022/03/07 09:49:20;;;;;;;;;14.25;13.00;;;;;19.67;34.59;101855.81;5078780;28;51010;-44
2022/03/07 09:51:45;;;;;;;;;12.75;12.75;;;;;19.69;34.12;101861.09;5075631;28;51974;-49
2022/03/07 09:54:11;;;;;;;;;8.00;8.00;;;;;19.70;34.32;101844.44;5078392;28;51072;-48
2022/03/07 09:56:36;;;;;;;;;14.50;13.75;;;;;19.73;34.44;101848.69;5076644;27;51049;-49
2022/03/07 09:59:02;;;;;;;;;12.00;11.00;;;;;19.73;34.03;101844.06;5078511;28;51395;-49
2022/03/07 10:01:27;;;;;;;;;12.25;12.25;;;;;19.75;34.04;101847.47;5074329;28;51887;-46
2022/03/07 10:04:07;;;;;;;;;14.00;13.50;;;;;19.76;34.19;101838.16;5056961;28;51169;-48
2022/03/07 10:06:32;;;;;;;;;9.75;9.50;;;;;19.78;34.02;101846.22;5057575;28;51085;-48
2022/03/07 10:09:00;;;;;;;;;12.50;12.50;;;;;19.79;34.25;101836.91;5057913;28;50956;-50
2022/03/07 10:11:28;;;;;;;;;12.25;10.00;;;;;19.80;34.02;101836.75;5062456;28;51090;-46
2022/03/07 10:14:04;;;;;;;;;10.50;9.50;;;;;19.83;33.97;101841.84;5078048;28;51449;-49
2022/03/07 10:16:38;;;;;;;;;11.50;11.50;;;;;19.83;33.94;101830.00;5078242;28;51163;-49
2022/03/07 10:19:11;;;;;;;;;14.00;14.00;;;;;19.84;34.05;101843.56;5078153;27;51351;-51
2022/03/07 10:21:44;;;;;;;;;14.00;14.00;;;;;19.84;33.92;101838.06;5075675;27;51258;-45
2022/03/07 10:24:09;;;;;;;;;12.25;10.25;;;;;19.86;34.00;101835.09;5077214;28;51343;-50
2022/03/07 10:26:35;;;;;;;;;15.50;12.25;;;;;19.86;34.27;101829.59;5076256;28;51105;-48
2022/03/07 10:29:03;;;;;;;;;13.75;13.50;;;;;19.87;33.99;101814.81;5082605;27;51057;-50
2022/03/07 10:31:29;;;;;;;;;9.00;9.00;;;;;19.88;33.95;101822.00;5097830;27;52046;-49
2022/03/07 10:34:04;;;;;;;;;14.00;12.00;;;;;19.90;34.01;101822.66;5063690;27;51051;-50
2022/03/07 10:36:37;;;;;;;;;12.50;11.50;;;;;19.89;33.74;101819.06;5057020;28;51158;-49
2022/03/07 10:39:05;;;;;;;;;14.00;12.00;;;;;19.92;33.93;101817.84;5057583;28;50990;-50
2022/03/07 10:41:41;;;;;;;;;11.75;11.00;;;;;19.92;33.77;101819.75;5062090;28;51723;-49
2022/03/07 10:44:10;;;;;;;;;10.75;10.50;;;;;19.92;34.25;101814.25;5077417;28;51399;-49
2022/03/07 10:46:36;;;;;;;;;13.25;12.00;;;;;19.92;33.88;101815.09;5077313;28;51055;-48
2022/03/07 10:49:02;;;;;;;;;10.75;10.75;;;;;19.92;34.21;101815.09;5077310;28;51109;-47
2022/03/07 10:51:27;;;;;;;;;12.50;10.75;;;;;19.92;34.00;101815.09;5074831;28;51147;-48
2022/03/07 10:53:54;;;;;;;;;11.50;11.25;;;;;19.95;33.77;101802.84;5076977;28;51104;-47
2022/03/07 10:56:21;;;;;;;;;13.00;11.75;;;;;19.94;34.22;101804.72;5075226;27;51137;-45
2022/03/07 10:58:52;;;;;;;;;11.25;9.75;;;;;19.94;34.11;101799.25;5077608;28;51450;-46
2022/03/07 11:01:33;;;;;;;;;11.75;11.75;;;;;19.94;34.01;101810.25;5077247;28;52497;-43
2022/03/07 11:03:59;;;;;;;;;10.75;10.75;;;;;19.93;34.08;101808.53;5075747;28;51053;-49